Time;durP1;ratioP1;P1;durP2;ratioP2;P2;SDS_P1;SDS_P2;PMS_P1;PMS_P2;Temp;Humidity;BMP_temperature;BMP_pressure;BME280_temperature;BME280_humidity;BME280_pressure;Samples;Min_cycle;Max_cycle;Signal;HPM_P1;HPM_P2
2023/04/26 00:01:04;;;;;;;2.10;1.10;;;8.30;90.60;;;;;;5132886;28;20211;-68
2023/04/26 00:03:31;;;;;;;2.45;1.20;;;8.30;90.60;;;;;;5133507;28;20535;-69
2023/04/26 00:06:02;;;;;;;2.35;1.00;;;8.30;90.70;;;;;;5132815;28;20191;-68
2023/04/26 00:08:35;;;;;;;2.67;1.20;;;8.30;90.70;;;;;;5133284;28;20199;-68
2023/04/26 00:11:03;;;;;;;1.90;1.10;;;8.30;90.60;;;;;;5132776;28;20187;-68
2023/04/26 00:13:31;;;;;;;2.00;1.10;;;8.30;90.50;;;;;;5134737;27;20202;-68
2023/04/26 00:15:58;;;;;;;2.10;1.05;;;8.30;90.50;;;;;;5136544;27;20230;-68
2023/04/26 00:18:27;;;;;;;2.50;1.38;;;8.20;90.30;;;;;;5137437;27;20188;-68
2023/04/26 00:20:54;;;;;;;1.88;0.98;;;8.30;90.10;;;;;;5136440;27;20646;-68
2023/04/26 00:23:22;;;;;;;2.00;0.95;;;8.20;90.10;;;;;;5137126;27;20317;-69
2023/04/26 00:25:51;;;;;;;2.00;1.10;;;8.20;90.30;;;;;;5137007;27;20187;-68
2023/04/26 00:28:18;;;;;;;2.28;1.00;;;8.20;90.30;;;;;;5137027;27;20199;-68
2023/04/26 00:30:47;;;;;;;3.28;1.55;;;8.20;90.10;;;;;;5136254;27;20187;-68
2023/04/26 00:33:15;;;;;;;2.38;1.15;;;8.20;90.10;;;;;;5137066;27;20184;-68
2023/04/26 00:35:42;;;;;;;2.30;1.10;;;8.20;90.30;;;;;;5136097;27;20259;-68
2023/04/26 00:38:09;;;;;;;1.90;1.02;;;8.20;90.70;;;;;;5136963;27;20668;-68
2023/04/26 00:40:36;;;;;;;2.00;0.90;;;8.20;90.90;;;;;;5136597;27;20241;-68
2023/04/26 00:43:06;;;;;;;2.33;1.20;;;8.20;91.00;;;;;;5136004;27;20208;-69
2023/04/26 00:45:35;;;;;;;2.13;1.10;;;8.20;90.90;;;;;;5136860;27;20217;-68
2023/04/26 00:48:03;;;;;;;2.50;1.10;;;8.20;90.70;;;;;;5136400;27;20248;-68
2023/04/26 00:50:32;;;;;;;1.80;0.90;;;8.30;90.60;;;;;;5134869;27;20916;-68
2023/04/26 00:53:02;;;;;;;5.82;1.23;;;8.30;90.70;;;;;;5136172;27;20192;-68
2023/04/26 00:55:29;;;;;;;2.40;1.38;;;8.30;90.70;;;;;;5136050;27;20204;-67
2023/04/26 00:57:57;;;;;;;3.95;1.48;;;8.30;90.90;;;;;;5136233;27;20630;-68
2023/04/26 01:00:26;;;;;;;2.00;1.30;;;8.30;91.00;;;;;;5136248;27;20279;-68
2023/04/26 01:02:53;;;;;;;2.40;1.20;;;8.30;91.20;;;;;;5136165;27;20312;-68
2023/04/26 01:05:21;;;;;;;2.25;1.27;;;8.30;91.20;;;;;;5136324;27;20192;-68
2023/04/26 01:07:48;;;;;;;2.00;0.93;;;8.30;91.00;;;;;;5135762;27;20180;-68
2023/04/26 01:10:17;;;;;;;2.03;0.90;;;8.20;91.00;;;;;;5136188;27;20230;-68
2023/04/26 01:12:45;;;;;;;2.20;1.02;;;8.20;91.20;;;;;;5135704;27;21049;-68
2023/04/26 01:15:13;;;;;;;2.22;1.02;;;8.20;91.30;;;;;;5135809;27;20336;-68
2023/04/26 01:17:46;;;;;;;2.60;1.10;;;8.20;91.40;;;;;;5135443;27;20672;-68
2023/04/26 01:20:14;;;;;;;2.05;1.15;;;8.20;91.60;;;;;;5136042;27;20253;-68
2023/04/26 01:22:43;;;;;;;2.15;1.30;;;8.20;91.70;;;;;;5135084;27;20223;-68
2023/04/26 01:25:12;;;;;;;2.30;1.20;;;8.20;91.60;;;;;;5134467;27;20278;-68
2023/04/26 01:27:40;;;;;;;2.20;0.90;;;8.20;91.50;;;;;;5134249;27;20217;-68
2023/04/26 01:30:09;;;;;;;2.00;1.20;;;8.10;91.60;;;;;;5135694;27;20184;-68
2023/04/26 01:32:36;;;;;;;2.00;1.20;;;8.10;91.70;;;;;;5135474;27;20186;-68
2023/04/26 01:35:05;;;;;;;2.00;1.00;;;8.20;91.50;;;;;;5135579;27;20184;-68
2023/04/26 01:37:32;;;;;;;2.80;1.80;;;8.10;91.50;;;;;;5135113;27;20646;-68
2023/04/26 01:40:01;;;;;;;2.85;1.52;;;8.10;91.60;;;;;;5135889;27;20283;-68
2023/04/26 01:42:29;;;;;;;3.13;1.92;;;8.10;91.60;;;;;;5134955;27;20214;-68
2023/04/26 01:44:56;;;;;;;2.97;1.92;;;8.10;91.60;;;;;;5135609;27;20192;-68
2023/04/26 01:47:25;;;;;;;3.72;1.95;;;8.10;91.70;;;;;;5134770;27;20176;-68
2023/04/26 01:49:55;;;;;;;4.07;2.47;;;8.10;91.80;;;;;;5135682;27;20649;-68
2023/04/26 01:52:23;;;;;;;3.38;2.50;;;8.10;91.70;;;;;;5135361;27;20206;-68
2023/04/26 01:54:51;;;;;;;4.00;2.60;;;8.10;91.70;;;;;;5135692;27;20679;-68
2023/04/26 01:57:19;;;;;;;3.58;2.40;;;8.00;91.50;;;;;;5134586;27;20222;-68
2023/04/26 01:59:47;;;;;;;5.18;2.67;;;8.00;91.40;;;;;;5135508;27;20749;-68
2023/04/26 02:02:16;;;;;;;4.28;3.33;;;8.00;91.40;;;;;;5134213;27;20215;-68
2023/04/26 02:04:44;;;;;;;4.07;2.45;;;7.90;91.20;;;;;;5135064;27;20191;-68
2023/04/26 02:07:11;;;;;;;3.30;2.40;;;7.90;91.20;;;;;;5134678;27;20211;-68
2023/04/26 02:09:41;;;;;;;3.95;2.65;;;7.90;91.40;;;;;;5135222;27;20188;-68
2023/04/26 02:12:08;;;;;;;4.20;2.90;;;7.80;91.50;;;;;;5134411;27;20194;-68
2023/04/26 02:14:37;;;;;;;3.63;2.80;;;7.80;91.50;;;;;;5135053;27;20202;-68
2023/04/26 02:17:05;;;;;;;3.85;2.45;;;7.80;91.60;;;;;;5134959;27;20749;-67
2023/04/26 02:19:32;;;;;;;3.38;2.20;;;7.70;91.80;;;;;;5135668;27;20223;-67
2023/04/26 02:21:59;;;;;;;4.75;3.08;;;7.70;92.00;;;;;;5134694;27;20360;-68
2023/04/26 02:24:27;;;;;;;5.45;2.80;;;7.70;92.20;;;;;;5134551;27;20194;-68
2023/04/26 02:26:56;;;;;;;6.90;2.70;;;7.70;92.40;;;;;;5134374;27;20191;-68
2023/04/26 02:29:23;;;;;;;6.20;3.42;;;7.70;92.70;;;;;;5134971;27;20248;-68
2023/04/26 02:31:52;;;;;;;3.50;2.22;;;7.60;92.70;;;;;;5133943;27;20715;-68
2023/04/26 02:34:19;;;;;;;4.63;2.80;;;7.70;92.60;;;;;;5135109;27;20230;-68
2023/04/26 02:36:47;;;;;;;4.65;3.15;;;7.60;92.70;;;;;;5134667;27;20223;-67
2023/04/26 02:39:14;;;;;;;3.35;2.55;;;7.60;92.60;;;;;;5135061;27;20202;-68
2023/04/26 02:41:42;;;;;;;4.47;3.08;;;7.50;92.70;;;;;;5134414;27;20211;-68
2023/04/26 02:44:10;;;;;;;4.30;2.45;;;7.50;92.70;;;;;;5134840;27;20304;-68
2023/04/26 02:46:37;;;;;;;3.47;2.25;;;7.50;92.80;;;;;;5134617;27;20184;-68
2023/04/26 02:49:06;;;;;;;4.65;3.10;;;7.50;92.90;;;;;;5135172;27;20245;-67
2023/04/26 02:51:33;;;;;;;4.13;2.85;;;7.50;93.20;;;;;;5134529;27;20223;-67
2023/04/26 02:54:00;;;;;;;4.78;2.30;;;7.50;93.30;;;;;;5135118;27;20199;-68
2023/04/26 02:56:27;;;;;;;3.80;2.38;;;7.50;93.40;;;;;;5134541;27;20184;-67
2023/04/26 02:58:54;;;;;;;4.40;3.15;;;7.50;93.40;;;;;;5135049;27;20611;-68
2023/04/26 03:01:21;;;;;;;3.80;2.22;;;7.50;93.40;;;;;;5134499;27;20191;-67
2023/04/26 03:03:48;;;;;;;4.95;2.75;;;7.50;93.60;;;;;;5134341;27;20273;-68
2023/04/26 03:06:17;;;;;;;4.22;2.70;;;7.50;93.50;;;;;;5134697;27;20223;-67
2023/04/26 03:08:44;;;;;;;5.97;2.35;;;7.50;93.00;;;;;;5134117;27;20200;-68
2023/04/26 03:11:11;;;;;;;3.30;2.45;;;7.50;92.80;;;;;;5134072;27;20223;-67
2023/04/26 03:13:39;;;;;;;4.50;2.63;;;7.50;92.70;;;;;;5133436;27;20188;-68
2023/04/26 03:16:07;;;;;;;3.95;2.60;;;7.40;92.60;;;;;;5134173;27;20223;-68
2023/04/26 03:18:34;;;;;;;3.83;2.08;;;7.40;92.70;;;;;;5131926;27;20176;-68
2023/04/26 03:21:02;;;;;;;4.20;2.08;;;7.40;92.80;;;;;;5133174;27;20271;-68
2023/04/26 03:23:31;;;;;;;3.53;2.55;;;7.40;92.90;;;;;;5133359;27;20223;-68
2023/04/26 03:25:59;;;;;;;2.60;1.75;;;7.40;92.90;;;;;;5133782;27;20194;-68
2023/04/26 03:28:26;;;;;;;2.65;1.75;;;7.40;92.60;;;;;;5133432;27;20192;-68
2023/04/26 03:30:55;;;;;;;2.50;1.38;;;7.40;92.40;;;;;;5134079;27;20192;-67
2023/04/26 03:33:22;;;;;;;3.25;1.80;;;7.40;92.50;;;;;;5133295;27;20195;-68
2023/04/26 03:35:50;;;;;;;2.20;1.30;;;7.40;92.10;;;;;;5113343;28;20648;-68
2023/04/26 03:38:18;;;;;;;2.60;1.33;;;7.30;92.30;;;;;;5113030;28;20562;-68
2023/04/26 03:40:46;;;;;;;4.90;1.90;;;7.30;92.60;;;;;;5133275;27;20195;-68
2023/04/26 03:43:13;;;;;;;2.60;1.20;;;7.30;92.70;;;;;;5133210;27;20272;-67
2023/04/26 03:45:41;;;;;;;2.92;1.70;;;7.30;92.70;;;;;;5133252;28;20187;-68
2023/04/26 03:48:08;;;;;;;2.60;1.50;;;7.30;92.40;;;;;;5132889;27;20538;-68
2023/04/26 03:50:35;;;;;;;2.65;1.50;;;7.30;92.00;;;;;;5133151;28;20191;-68
2023/04/26 03:53:03;;;;;;;3.13;1.33;;;7.20;91.60;;;;;;5133654;28;20191;-67
2023/04/26 03:55:30;;;;;;;3.33;1.40;;;7.10;91.80;;;;;;5132985;28;20183;-68
2023/04/26 03:57:59;;;;;;;2.40;1.20;;;7.00;91.90;;;;;;5133254;28;20197;-68
2023/04/26 04:00:26;;;;;;;2.10;0.95;;;7.00;91.90;;;;;;5133636;28;20242;-67
2023/04/26 04:02:54;;;;;;;3.53;1.10;;;7.00;92.10;;;;;;5132944;28;20290;-68
2023/04/26 04:05:21;;;;;;;1.90;0.95;;;7.00;92.20;;;;;;5133006;28;20199;-67
2023/04/26 04:07:48;;;;;;;3.13;1.40;;;6.90;91.70;;;;;;5133245;28;20594;-67
2023/04/26 04:10:16;;;;;;;2.20;1.10;;;6.80;91.40;;;;;;5133445;28;20191;-68
2023/04/26 04:12:43;;;;;;;2.03;1.00;;;6.80;91.00;;;;;;5133088;28;20267;-68
2023/04/26 04:15:12;;;;;;;3.05;1.60;;;6.70;91.30;;;;;;5133209;28;20681;-68
2023/04/26 04:17:40;;;;;;;3.90;2.13;;;6.60;91.60;;;;;;5132914;28;20191;-67
2023/04/26 04:20:08;;;;;;;3.22;1.67;;;6.40;92.30;;;;;;5133277;28;20670;-68
2023/04/26 04:22:38;;;;;;;2.70;1.10;;;6.40;92.80;;;;;;5133115;28;20208;-68
2023/04/26 04:25:08;;;;;;;2.38;1.35;;;6.40;93.00;;;;;;5133617;28;20188;-68
2023/04/26 04:27:35;;;;;;;3.75;2.63;;;6.50;92.70;;;;;;5132981;28;20233;-68
2023/04/26 04:30:03;;;;;;;3.70;2.33;;;6.40;93.00;;;;;;5133395;28;20195;-68
2023/04/26 04:32:32;;;;;;;3.72;2.72;;;6.30;93.40;;;;;;5132834;28;20190;-67
2023/04/26 04:35:00;;;;;;;5.57;3.47;;;6.30;93.50;;;;;;5131561;28;20521;-68
2023/04/26 04:37:27;;;;;;;5.43;3.00;;;6.30;93.50;;;;;;5113786;28;20207;-68
2023/04/26 04:39:54;;;;;;;3.17;2.00;;;6.30;93.10;;;;;;5117290;28;20189;-68
2023/04/26 04:42:22;;;;;;;2.30;1.40;;;6.20;93.10;;;;;;5112076;28;20212;-68
2023/04/26 04:44:50;;;;;;;2.30;1.33;;;6.20;93.20;;;;;;5129640;28;20195;-68
2023/04/26 04:47:17;;;;;;;3.05;1.40;;;6.20;93.70;;;;;;5130249;28;20198;-68
2023/04/26 04:49:51;;;;;;;2.30;1.10;;;6.20;94.10;;;;;;5129708;28;20223;-68
2023/04/26 04:52:20;;;;;;;2.22;1.27;;;6.20;93.80;;;;;;5122984;28;20266;-68
2023/04/26 04:54:47;;;;;;;2.60;1.30;;;6.30;93.60;;;;;;5112057;28;20207;-68
2023/04/26 04:57:15;;;;;;;2.58;1.58;;;6.30;93.70;;;;;;5111709;28;20196;-68
2023/04/26 04:59:42;;;;;;;2.85;1.33;;;6.30;93.70;;;;;;5113231;27;20242;-68
2023/04/26 05:02:09;;;;;;;3.75;1.27;;;6.30;93.50;;;;;;5115136;27;20196;-68
2023/04/26 05:04:37;;;;;;;2.70;1.73;;;6.30;93.90;;;;;;5115260;27;20210;-67
2023/04/26 05:07:06;;;;;;;3.47;1.70;;;6.30;94.40;;;;;;5115390;27;20253;-67
2023/04/26 05:09:33;;;;;;;2.67;1.45;;;6.30;94.50;;;;;;5115719;27;20188;-68
2023/04/26 05:12:02;;;;;;;2.00;1.13;;;6.40;94.30;;;;;;5133027;27;20188;-68
2023/04/26 05:14:30;;;;;;;2.20;1.35;;;6.40;93.50;;;;;;5133883;27;20183;-68
2023/04/26 05:16:57;;;;;;;2.40;1.20;;;6.40;93.30;;;;;;5133324;27;20577;-68
2023/04/26 05:19:24;;;;;;;2.50;1.45;;;6.30;93.20;;;;;;5132693;27;20191;-68
2023/04/26 05:21:51;;;;;;;3.20;1.65;;;6.20;93.90;;;;;;5114980;27;20193;-68
2023/04/26 05:24:20;;;;;;;7.28;4.18;;;6.20;94.00;;;;;;5114896;27;20231;-68
2023/04/26 05:26:47;;;;;;;5.13;3.90;;;6.10;94.30;;;;;;5117967;27;20715;-68
2023/04/26 05:29:14;;;;;;;3.30;2.25;;;6.20;94.30;;;;;;5116212;27;20188;-68
2023/04/26 05:31:41;;;;;;;5.18;2.53;;;6.10;94.60;;;;;;5116681;27;20180;-68
2023/04/26 05:34:08;;;;;;;4.28;2.75;;;6.10;95.30;;;;;;5122013;27;20326;-68
2023/04/26 05:36:35;;;;;;;3.00;1.75;;;6.20;95.40;;;;;;5115573;27;20215;-67
2023/04/26 05:39:04;;;;;;;3.72;2.30;;;6.30;95.50;;;;;;5112693;27;20192;-68
2023/04/26 05:41:32;;;;;;;3.67;2.00;;;6.40;95.80;;;;;;5114314;27;20270;-68
2023/04/26 05:43:59;;;;;;;3.88;2.92;;;6.60;95.60;;;;;;5114104;27;20299;-68
2023/04/26 05:46:26;;;;;;;3.80;2.63;;;6.80;95.00;;;;;;5114024;27;20275;-68
2023/04/26 05:48:53;;;;;;;3.25;2.88;;;6.90;94.40;;;;;;5115072;27;20270;-68
2023/04/26 05:51:25;;;;;;;4.45;2.15;;;6.90;94.10;;;;;;5114680;27;20219;-68
2023/04/26 05:53:56;;;;;;;3.42;2.65;;;6.90;93.40;;;;;;5122668;27;20191;-68
2023/04/26 05:56:25;;;;;;;4.13;2.70;;;6.80;93.30;;;;;;5132629;27;20187;-68
2023/04/26 05:58:54;;;;;;;4.85;2.40;;;6.70;93.80;;;;;;5134858;27;20272;-68
2023/04/26 06:01:21;;;;;;;3.88;2.80;;;6.70;94.00;;;;;;5135690;27;20526;-68
2023/04/26 06:03:51;;;;;;;3.97;2.60;;;6.70;94.40;;;;;;5135351;27;20219;-67
2023/04/26 06:06:20;;;;;;;3.60;2.63;;;6.80;94.90;;;;;;5135504;27;20648;-68
2023/04/26 06:08:47;;;;;;;4.28;2.95;;;6.90;94.90;;;;;;5135680;27;20192;-68
2023/04/26 06:11:14;;;;;;;4.68;2.97;;;7.10;94.60;;;;;;5134678;27;20219;-67
2023/04/26 06:13:41;;;;;;;3.92;2.70;;;7.20;94.20;;;;;;5135438;27;20227;-68
2023/04/26 06:16:11;;;;;;;10.98;4.50;;;7.30;93.90;;;;;;5135340;27;20310;-67
2023/04/26 06:18:42;;;;;;;5.32;2.92;;;7.50;93.30;;;;;;5135295;27;20279;-68
2023/04/26 06:21:09;;;;;;;4.95;2.55;;;7.80;92.50;;;;;;5135586;27;20230;-68
2023/04/26 06:23:42;;;;;;;4.68;2.90;;;7.70;91.50;;;;;;5134981;27;20661;-68
2023/04/26 06:26:12;;;;;;;4.57;3.08;;;7.70;92.00;;;;;;5135055;27;20186;-68
2023/04/26 06:28:39;;;;;;;4.40;3.00;;;7.80;92.30;;;;;;5135313;27;20192;-68
2023/04/26 06:31:06;;;;;;;5.00;3.80;;;7.90;90.70;;;;;;5135226;27;20223;-68
2023/04/26 06:33:35;;;;;;;4.80;3.25;;;8.00;91.10;;;;;;5135306;27;20230;-68
2023/04/26 06:36:02;;;;;;;5.00;3.30;;;8.20;90.80;;;;;;5135072;27;20188;-68
2023/04/26 06:38:29;;;;;;;4.80;3.50;;;8.30;90.40;;;;;;5135357;27;20691;-67
2023/04/26 06:41:04;;;;;;;5.60;3.95;;;8.50;89.20;;;;;;5135042;27;20282;-68
2023/04/26 06:43:31;;;;;;;4.55;3.50;;;8.60;87.80;;;;;;5135098;27;20215;-68
2023/04/26 06:46:00;;;;;;;6.03;3.55;;;8.60;87.30;;;;;;5135244;27;20583;-68
2023/04/26 06:48:31;;;;;;;6.90;4.18;;;8.70;86.30;;;;;;5134787;27;20195;-68
2023/04/26 06:51:04;;;;;;;7.57;4.78;;;8.70;87.60;;;;;;5134937;27;20192;-68
2023/04/26 06:53:31;;;;;;;5.72;4.72;;;8.90;87.90;;;;;;5134899;27;20219;-67
2023/04/26 06:56:00;;;;;;;6.00;4.18;;;9.00;86.70;;;;;;5134873;27;20624;-68
2023/04/26 06:58:27;;;;;;;6.95;4.55;;;9.00;86.00;;;;;;5132548;27;20557;-67
2023/04/26 07:00:54;;;;;;;5.50;3.67;;;9.30;84.80;;;;;;5134651;27;20219;-68
2023/04/26 07:03:22;;;;;;;5.18;3.80;;;9.60;83.50;;;;;;5134530;27;20265;-68
2023/04/26 07:05:49;;;;;;;6.28;4.60;;;9.80;82.40;;;;;;5134434;27;20223;-68
2023/04/26 07:08:17;;;;;;;6.82;4.30;;;10.10;78.00;;;;;;5134516;27;20191;-68
2023/04/26 07:10:44;;;;;;;7.68;4.03;;;10.20;77.30;;;;;;5134075;27;20278;-68
2023/04/26 07:13:13;;;;;;;6.97;5.43;;;10.30;78.30;;;;;;5134467;27;20200;-68
2023/04/26 07:15:40;;;;;;;7.88;5.35;;;10.50;76.00;;;;;;5134383;27;20265;-68
2023/04/26 07:18:08;;;;;;;7.68;4.45;;;10.70;74.40;;;;;;5134254;27;20200;-68
2023/04/26 07:20:35;;;;;;;6.88;5.00;;;10.90;75.70;;;;;;5134223;27;20283;-68
2023/04/26 07:23:02;;;;;;;7.47;4.53;;;11.10;72.50;;;;;;5133294;27;20532;-68
2023/04/26 07:25:30;;;;;;;8.57;5.00;;;11.30;70.00;;;;;;5134456;27;20223;-68
2023/04/26 07:27:57;;;;;;;7.63;4.97;;;11.40;71.10;;;;;;5134205;27;20224;-68
2023/04/26 07:30:25;;;;;;;6.65;4.43;;;11.50;70.10;;;;;;5134277;27;20233;-67
2023/04/26 07:32:52;;;;;;;9.18;5.30;;;11.40;68.10;;;;;;5134057;27;20195;-67
2023/04/26 07:35:19;;;;;;;11.23;4.53;;;11.60;68.40;;;;;;5134179;27;20278;-68
2023/04/26 07:37:46;;;;;;;7.50;4.70;;;12.00;69.90;;;;;;5133889;27;20191;-68
2023/04/26 07:40:14;;;;;;;7.82;4.45;;;12.50;67.10;;;;;;5134039;27;20191;-68
2023/04/26 07:42:42;;;;;;;6.43;4.55;;;12.90;64.30;;;;;;5133849;27;20223;-68
2023/04/26 07:45:10;;;;;;;5.90;4.15;;;12.90;63.60;;;;;;5114597;28;20378;-68
2023/04/26 07:47:37;;;;;;;8.20;4.30;;;13.10;64.30;;;;;;5113452;28;20223;-68
2023/04/26 07:50:07;;;;;;;6.80;4.00;;;13.20;64.90;;;;;;5113372;28;20235;-68
2023/04/26 07:52:35;;;;;;;6.37;5.77;;;13.30;61.50;;;;;;5113609;28;20440;-68
2023/04/26 07:55:02;;;;;;;7.63;4.87;;;13.30;58.70;;;;;;5113010;28;20481;-68
2023/04/26 07:57:29;;;;;;;6.88;4.15;;;13.40;58.60;;;;;;5113508;28;20846;-69
2023/04/26 07:59:58;;;;;;;5.63;4.70;;;13.50;55.90;;;;;;5113342;28;20588;-68
2023/04/26 08:02:25;;;;;;;7.57;5.33;;;13.30;56.60;;;;;;5113216;28;20474;-68
2023/04/26 08:04:53;;;;;;;5.67;4.33;;;13.20;57.10;;;;;;5112796;28;20558;-68
2023/04/26 08:07:21;;;;;;;7.32;5.38;;;13.10;56.30;;;;;;5113299;28;20934;-68
2023/04/26 08:09:49;;;;;;;6.00;4.93;;;13.20;57.40;;;;;;5113349;28;20189;-68
2023/04/26 08:12:16;;;;;;;7.50;4.60;;;13.40;57.30;;;;;;5112680;28;20444;-68
2023/04/26 08:14:43;;;;;;;6.60;4.27;;;13.80;56.50;;;;;;5113162;28;20482;-68
2023/04/26 08:17:11;;;;;;;4.93;3.83;;;14.20;55.00;;;;;;5113042;28;20497;-68
2023/04/26 08:19:38;;;;;;;6.90;4.17;;;14.20;53.10;;;;;;5113006;28;20846;-68
2023/04/26 08:22:05;;;;;;;7.17;3.60;;;14.50;55.30;;;;;;5113063;28;20456;-68
2023/04/26 08:24:32;;;;;;;5.50;3.60;;;14.90;54.40;;;;;;5112589;28;20510;-68
2023/04/26 08:26:59;;;;;;;6.77;4.57;;;15.10;53.10;;;;;;5112646;28;20551;-68
2023/04/26 08:29:27;;;;;;;6.37;4.57;;;15.00;50.50;;;;;;5113257;28;20538;-69
2023/04/26 08:31:55;;;;;;;8.00;4.10;;;15.00;50.60;;;;;;5113282;28;20513;-68
2023/04/26 08:34:23;;;;;;;5.30;3.33;;;14.70;50.70;;;;;;5114033;28;20441;-68
2023/04/26 08:36:50;;;;;;;10.57;4.90;;;14.40;51.60;;;;;;5117077;28;20529;-68
2023/04/26 08:39:17;;;;;;;6.63;4.47;;;14.20;52.70;;;;;;5116908;28;20912;-68
2023/04/26 08:41:49;;;;;;;8.23;3.93;;;14.20;53.90;;;;;;5116750;28;20473;-68
2023/04/26 08:44:22;;;;;;;6.60;4.40;;;14.10;52.90;;;;;;5116805;28;20574;-68
2023/04/26 08:46:57;;;;;;;6.57;4.00;;;14.20;54.20;;;;;;5116549;28;20438;-68
2023/04/26 08:49:41;;;;;;;5.93;4.50;;;14.70;52.10;;;;;;5117180;28;20561;-68
2023/04/26 08:52:10;;;;;;;4.73;3.30;;;15.00;51.50;;;;;;5116797;28;20438;-68
2023/04/26 08:54:37;;;;;;;9.13;5.00;;;15.40;50.40;;;;;;5116560;28;20446;-68
2023/04/26 08:57:06;;;;;;;4.73;3.70;;;15.80;49.90;;;;;;5116452;28;20525;-68
2023/04/26 08:59:33;;;;;;;6.63;3.50;;;16.20;49.40;;;;;;5116434;28;20453;-68
2023/04/26 09:02:02;;;;;;;4.53;3.77;;;16.60;49.20;;;;;;5116502;28;20994;-68
2023/04/26 09:04:31;;;;;;;4.70;3.47;;;16.90;47.00;;;;;;5116172;28;20476;-68
2023/04/26 09:07:01;;;;;;;5.77;4.00;;;16.90;45.00;;;;;;5116504;28;20825;-68
2023/04/26 09:09:34;;;;;;;9.33;4.00;;;16.90;46.80;;;;;;5116384;28;20453;-68
2023/04/26 09:12:02;;;;;;;8.30;4.53;;;16.90;46.00;;;;;;5116062;28;21023;-68
2023/04/26 09:14:29;;;;;;;4.77;3.27;;;16.80;46.00;;;;;;5116335;28;20840;-69
2023/04/26 09:16:56;;;;;;;7.43;4.53;;;16.90;45.10;;;;;;5116084;28;20485;-68
2023/04/26 09:19:36;;;;;;;4.87;3.20;;;17.20;45.40;;;;;;5116183;28;20430;-68
2023/04/26 09:22:05;;;;;;;5.83;2.77;;;17.70;46.00;;;;;;5115843;28;20430;-69
2023/04/26 09:24:46;;;;;;;4.40;3.03;;;18.20;43.50;;;;;;5115902;28;20488;-69
2023/04/26 09:27:14;;;;;;;6.37;3.17;;;18.30;42.30;;;;;;5115816;28;20438;-68
2023/04/26 09:29:41;;;;;;;7.73;4.23;;;18.20;42.40;;;;;;5115816;28;20767;-68
2023/04/26 09:32:08;;;;;;;6.67;4.03;;;18.00;42.60;;;;;;5123413;27;20968;-69
2023/04/26 09:34:46;;;;;;;5.70;3.10;;;18.20;43.40;;;;;;5127779;27;20473;-68
2023/04/26 09:37:13;;;;;;;5.17;3.27;;;18.30;43.10;;;;;;5131917;27;20448;-68
2023/04/26 09:39:43;;;;;;;6.43;3.30;;;18.30;42.70;;;;;;5131306;27;20521;-68
2023/04/26 09:42:11;;;;;;;3.70;2.53;;;18.00;42.70;;;;;;5133572;27;20523;-68
2023/04/26 09:44:41;;;;;;;4.97;3.40;;;17.80;42.60;;;;;;5130956;27;20472;-68
2023/04/26 09:47:09;;;;;;;4.43;3.17;;;17.60;43.00;;;;;;5126860;27;20964;-68
2023/04/26 09:49:47;;;;;;;3.60;2.73;;;17.40;40.20;;;;;;5127892;27;20437;-68
2023/04/26 09:52:15;;;;;;;5.20;3.03;;;16.90;41.00;;;;;;5130094;27;20848;-68
2023/04/26 09:54:44;;;;;;;4.03;2.87;;;16.40;41.60;;;;;;5135436;27;20482;-68
2023/04/26 09:57:12;;;;;;;4.80;2.60;;;16.10;44.20;;;;;;5130930;27;20437;-68
2023/04/26 09:59:40;;;;;;;4.23;3.03;;;16.00;46.20;;;;;;5135344;27;20807;-68
2023/04/26 10:02:14;;;;;;;6.20;3.53;;;16.00;46.30;;;;;;5126589;27;20983;-68
2023/04/26 10:04:43;;;;;;;4.33;3.53;;;15.80;48.20;;;;;;5127281;27;20513;-68
2023/04/26 10:07:13;;;;;;;4.80;3.07;;;15.70;49.00;;;;;;5127054;27;20444;-68
2023/04/26 10:09:42;;;;;;;4.50;2.80;;;15.70;48.60;;;;;;5127593;27;20440;-69
2023/04/26 10:12:10;;;;;;;4.57;2.90;;;15.60;48.30;;;;;;5130218;27;20780;-68
2023/04/26 10:14:37;;;;;;;6.13;3.63;;;15.40;47.90;;;;;;5134306;27;20476;-68
2023/04/26 10:17:05;;;;;;;8.70;3.97;;;15.30;48.10;;;;;;5134352;27;20913;-68
2023/04/26 10:19:33;;;;;;;6.93;4.40;;;15.00;48.60;;;;;;5134046;27;20863;-68
2023/04/26 10:22:04;;;;;;;6.27;3.17;;;14.80;49.30;;;;;;5132706;27;20495;-68
2023/04/26 10:24:35;;;;;;;7.33;3.70;;;14.50;50.00;;;;;;5131767;27;20989;-68
2023/04/26 10:27:03;;;;;;;3.40;2.50;;;14.50;51.30;;;;;;5134543;27;20775;-69
2023/04/26 10:30:03;;;;;;;5.40;3.40;;;14.70;51.80;;;;;;5134199;27;20506;-68
2023/04/26 10:33:08;;;;;;;4.30;2.80;;;15.00;50.70;;;;;;5117132;27;20548;-68
2023/04/26 10:35:36;;;;;;;5.63;3.37;;;15.30;50.90;;;;;;5118962;27;20437;-69
2023/04/26 10:38:10;;;;;;;5.37;3.60;;;15.80;51.30;;;;;;5132731;27;20953;-69
2023/04/26 10:40:40;;;;;;;4.60;3.40;;;16.30;50.50;;;;;;5133527;27;20444;-68
2023/04/26 10:43:28;;;;;;;3.93;3.53;;;16.60;48.30;;;;;;5131053;27;20976;-68
2023/04/26 10:45:56;;;;;;;5.33;3.27;;;16.80;47.00;;;;;;5130566;27;20557;-68
2023/04/26 10:48:28;;;;;;;5.43;2.70;;;16.80;45.90;;;;;;5134407;27;20452;-69
2023/04/26 10:51:09;;;;;;;12.50;3.97;;;16.90;45.00;;;;;;5133569;27;20445;-68
2023/04/26 10:54:01;;;;;;;5.10;2.87;;;17.30;47.00;;;;;;5132509;27;20429;-68
2023/04/26 10:56:54;;;;;;;6.87;2.60;;;17.50;44.20;;;;;;5126833;27;20537;-68
2023/04/26 10:59:22;;;;;;;3.67;3.00;;;17.80;44.40;;;;;;5130088;27;20837;-68
2023/04/26 11:01:49;;;;;;;4.70;2.93;;;18.10;44.00;;;;;;5127110;27;21026;-68
2023/04/26 11:04:20;;;;;;;5.20;2.87;;;18.40;44.00;;;;;;5129628;27;20453;-68
2023/04/26 11:06:49;;;;;;;4.13;2.47;;;18.80;43.20;;;;;;5129971;27;20507;-69
2023/04/26 11:09:36;;;;;;;4.90;2.37;;;19.10;41.10;;;;;;5129679;27;20445;-68
2023/04/26 11:12:06;;;;;;;3.73;2.40;;;19.30;41.30;;;;;;5128150;27;20441;-69
2023/04/26 11:14:34;;;;;;;4.97;2.70;;;19.20;41.50;;;;;;5133365;27;20492;-68
2023/04/26 11:17:04;;;;;;;4.47;2.73;;;18.90;39.50;;;;;;5129351;27;20469;-68
2023/04/26 11:19:32;;;;;;;3.93;2.90;;;18.60;38.90;;;;;;5128548;27;20521;-68
2023/04/26 11:22:00;;;;;;;3.47;2.27;;;18.10;39.20;;;;;;5133029;27;20445;-68
2023/04/26 11:24:28;;;;;;;6.57;3.10;;;17.90;40.30;;;;;;5129291;27;20484;-68
2023/04/26 11:26:56;;;;;;;3.87;2.70;;;17.80;40.90;;;;;;5124915;27;20470;-68
2023/04/26 11:29:25;;;;;;;6.33;3.13;;;17.50;40.30;;;;;;5129331;27;20441;-68
2023/04/26 11:31:54;;;;;;;4.77;2.80;;;17.30;40.90;;;;;;5129419;27;20440;-68
2023/04/26 11:34:23;;;;;;;4.20;2.70;;;17.10;41.80;;;;;;5126963;27;20934;-68
2023/04/26 11:36:52;;;;;;;4.20;2.43;;;16.90;41.90;;;;;;5128838;27;20434;-68
2023/04/26 11:39:23;;;;;;;4.07;3.20;;;16.70;42.40;;;;;;5132857;27;20441;-69
2023/04/26 11:41:50;;;;;;;4.53;2.80;;;16.50;42.10;;;;;;5125114;27;20487;-68
2023/04/26 11:44:24;;;;;;;7.73;2.97;;;16.40;43.50;;;;;;5125225;27;20450;-68
2023/04/26 11:46:53;;;;;;;5.10;3.03;;;16.30;44.00;;;;;;5124507;27;20480;-68
2023/04/26 11:49:26;;;;;;;5.87;3.80;;;16.10;43.80;;;;;;5124926;28;20469;-68
2023/04/26 11:51:54;;;;;;;4.33;3.20;;;16.00;44.80;;;;;;5123853;28;20508;-68
2023/04/26 11:54:28;;;;;;;5.83;3.33;;;16.00;44.60;;;;;;5133408;28;20495;-68
2023/04/26 11:56:56;;;;;;;4.40;3.27;;;16.10;44.10;;;;;;5124644;28;20529;-68
2023/04/26 11:59:29;;;;;;;4.97;2.80;;;16.00;43.40;;;;;;5132041;28;20456;-68
2023/04/26 12:02:00;;;;;;;4.70;2.60;;;16.00;44.30;;;;;;5131730;28;20800;-68
2023/04/26 12:04:29;;;;;;;7.90;3.43;;;16.10;43.50;;;;;;5123664;28;20436;-69
2023/04/26 12:06:56;;;;;;;4.63;3.30;;;16.30;45.30;;;;;;5128824;28;20441;-68
2023/04/26 12:09:24;;;;;;;4.03;3.27;;;16.50;43.10;;;;;;5127500;27;20473;-68
2023/04/26 12:11:57;;;;;;;3.80;2.43;;;16.80;43.90;;;;;;5131013;27;20437;-68
2023/04/26 12:14:31;;;;;;;5.70;2.67;;;17.00;43.60;;;;;;5126088;27;20493;-68
2023/04/26 12:17:01;;;;;;;5.50;2.83;;;17.00;42.40;;;;;;5131509;27;20567;-68
2023/04/26 12:19:32;;;;;;;4.03;2.80;;;16.70;42.80;;;;;;5135598;27;20437;-68
2023/04/26 12:22:00;;;;;;;4.37;2.87;;;16.50;43.70;;;;;;5131763;27;20484;-68
2023/04/26 12:24:29;;;;;;;3.90;2.80;;;16.20;43.70;;;;;;5126040;27;20470;-68
2023/04/26 12:26:56;;;;;;;4.63;2.50;;;16.00;44.30;;;;;;5128902;27;20505;-68
2023/04/26 12:29:23;;;;;;;7.13;4.43;;;16.00;44.20;;;;;;5130636;27;20524;-68
2023/04/26 12:31:50;;;;;;;5.07;2.40;;;16.00;44.30;;;;;;5134510;27;20528;-68
2023/04/26 12:34:18;;;;;;;6.30;2.50;;;16.10;43.80;;;;;;5136100;27;20490;-68
2023/04/26 12:36:45;;;;;;;5.50;2.60;;;16.00;44.10;;;;;;5128826;27;20939;-69
2023/04/26 12:39:13;;;;;;;3.60;3.10;;;16.00;45.20;;;;;;5132154;27;20461;-68
2023/04/26 12:41:40;;;;;;;4.17;2.83;;;16.00;45.40;;;;;;5127688;27;20809;-68
2023/04/26 12:44:07;;;;;;;3.70;2.73;;;16.00;43.70;;;;;;5127941;27;20482;-67
2023/04/26 12:46:34;;;;;;;4.40;2.80;;;15.90;44.30;;;;;;5127628;27;20572;-67
2023/04/26 12:49:02;;;;;;;6.43;3.13;;;15.80;44.40;;;;;;5134402;27;20472;-67
2023/04/26 12:51:32;;;;;;;4.13;2.53;;;15.80;43.80;;;;;;5133882;27;20477;-68
2023/04/26 12:54:01;;;;;;;4.13;2.60;;;15.80;44.10;;;;;;5132148;27;20807;-67
2023/04/26 12:56:30;;;;;;;8.03;3.23;;;15.80;44.40;;;;;;5132103;27;20766;-67
2023/04/26 12:58:57;;;;;;;4.43;3.20;;;15.80;44.80;;;;;;5136227;27;20520;-67
2023/04/26 13:01:24;;;;;;;6.30;3.70;;;15.80;45.30;;;;;;5131369;27;20516;-67